Laguna Larga, Argentina
Current Conditions -  °F | °C
As of 10:00 PM on Monday 26 Jan 2015 (Local Time) from SACO Reporting Station
Thunderstorm Thunderstorm  
Wind Chill: 70°   Ceiling: Unl
Heat Index: 70°   Visibility: 6mi
Dew Point: 63°   Wind: 9mph
Humidity: 78%   Direction: 230°SW
Pressure: 29.88"   Gusts: NA
Location:  31.77°S, 63.8°W
Report Text: SACO 270100Z 23008KT 9999 TS FEW030FEW035CB SCT050 21/17 Q1012
Loading
Personal Weather Stations






























Interactive Weather Map New forecast layout! Learn more

10-Day Weather Forecast

Advertisements
Track Severe Weather on mobile